sensor_id;sensor_type;location;lat;lon;timestamp;P1;durP1;ratioP1;P2;durP2;ratioP2
67352;SDS011;54238;52.278;21.056;2022-09-09T00:02:18;12.10;;;6.10;;
67352;SDS011;54238;52.278;21.056;2022-09-09T00:04:59;8.50;;;5.10;;
67352;SDS011;54238;52.278;21.056;2022-09-09T00:07:52;11.70;;;5.70;;
67352;SDS011;54238;52.278;21.056;2022-09-09T00:10:36;11.20;;;4.80;;
67352;SDS011;54238;52.278;21.056;2022-09-09T00:13:22;14.10;;;6.00;;
67352;SDS011;54238;52.278;21.056;2022-09-09T00:16:02;12.90;;;6.30;;
67352;SDS011;54238;52.278;21.056;2022-09-09T00:21:47;12.50;;;5.50;;
67352;SDS011;54238;52.278;21.056;2022-09-09T00:27:07;9.90;;;5.10;;
67352;SDS011;54238;52.278;21.056;2022-09-09T00:30:14;10.50;;;5.80;;
67352;SDS011;54238;52.278;21.056;2022-09-09T00:33:08;8.00;;;5.00;;
67352;SDS011;54238;52.278;21.056;2022-09-09T00:44:35;11.20;;;6.20;;
67352;SDS011;54238;52.278;21.056;2022-09-09T00:56:48;9.70;;;5.50;;
67352;SDS011;54238;52.278;21.056;2022-09-09T00:59:41;10.20;;;6.10;;
67352;SDS011;54238;52.278;21.056;2022-09-09T01:02:29;12.20;;;5.90;;
67352;SDS011;54238;52.278;21.056;2022-09-09T01:05:19;11.50;;;5.60;;
67352;SDS011;54238;52.278;21.056;2022-09-09T01:07:58;13.80;;;6.30;;
67352;SDS011;54238;52.278;21.056;2022-09-09T01:10:58;13.10;;;5.70;;
67352;SDS011;54238;52.278;21.056;2022-09-09T01:13:31;11.40;;;5.90;;
67352;SDS011;54238;52.278;21.056;2022-09-09T01:16:06;14.50;;;6.50;;
67352;SDS011;54238;52.278;21.056;2022-09-09T01:18:43;14.20;;;6.50;;
67352;SDS011;54238;52.278;21.056;2022-09-09T01:21:36;13.80;;;6.00;;
67352;SDS011;54238;52.278;21.056;2022-09-09T01:24:44;14.80;;;7.50;;
67352;SDS011;54238;52.278;21.056;2022-09-09T01:27:34;11.90;;;6.70;;
67352;SDS011;54238;52.278;21.056;2022-09-09T01:30:14;10.90;;;6.00;;
67352;SDS011;54238;52.278;21.056;2022-09-09T01:32:50;15.00;;;7.10;;
67352;SDS011;54238;52.278;21.056;2022-09-09T01:36:03;13.30;;;6.00;;
67352;SDS011;54238;52.278;21.056;2022-09-09T01:38:25;13.30;;;6.50;;
67352;SDS011;54238;52.278;21.056;2022-09-09T01:40:54;14.00;;;6.80;;
67352;SDS011;54238;52.278;21.056;2022-09-09T01:43:22;10.60;;;6.30;;
67352;SDS011;54238;52.278;21.056;2022-09-09T01:45:55;12.60;;;6.60;;
67352;SDS011;54238;52.278;21.056;2022-09-09T01:48:26;16.60;;;7.00;;
67352;SDS011;54238;52.278;21.056;2022-09-09T01:50:59;11.50;;;6.60;;
67352;SDS011;54238;52.278;21.056;2022-09-09T01:53:26;14.80;;;6.90;;
67352;SDS011;54238;52.278;21.056;2022-09-09T01:56:04;12.30;;;6.40;;
67352;SDS011;54238;52.278;21.056;2022-09-09T02:02:11;13.80;;;7.20;;
67352;SDS011;54238;52.278;21.056;2022-09-09T02:04:39;14.90;;;6.70;;
67352;SDS011;54238;52.278;21.056;2022-09-09T02:10:27;12.40;;;6.90;;
67352;SDS011;54238;52.278;21.056;2022-09-09T02:13:14;14.30;;;8.60;;
67352;SDS011;54238;52.278;21.056;2022-09-09T02:15:56;15.90;;;8.90;;
67352;SDS011;54238;52.278;21.056;2022-09-09T02:18:38;14.00;;;7.20;;
67352;SDS011;54238;52.278;21.056;2022-09-09T02:21:13;16.60;;;7.80;;
67352;SDS011;54238;52.278;21.056;2022-09-09T02:23:44;13.20;;;6.50;;
67352;SDS011;54238;52.278;21.056;2022-09-09T02:26:18;13.70;;;7.70;;
67352;SDS011;54238;52.278;21.056;2022-09-09T02:28:51;13.20;;;7.50;;
67352;SDS011;54238;52.278;21.056;2022-09-09T02:31:24;16.40;;;8.30;;
67352;SDS011;54238;52.278;21.056;2022-09-09T02:33:59;14.80;;;7.80;;
67352;SDS011;54238;52.278;21.056;2022-09-09T02:36:32;13.90;;;8.00;;
67352;SDS011;54238;52.278;21.056;2022-09-09T02:39:12;14.20;;;8.10;;
67352;SDS011;54238;52.278;21.056;2022-09-09T02:41:41;16.00;;;7.40;;
67352;SDS011;54238;52.278;21.056;2022-09-09T02:47:30;16.80;;;8.00;;
67352;SDS011;54238;52.278;21.056;2022-09-09T02:56:00;14.30;;;7.30;;
67352;SDS011;54238;52.278;21.056;2022-09-09T02:58:35;16.30;;;9.00;;
67352;SDS011;54238;52.278;21.056;2022-09-09T03:01:11;15.30;;;9.40;;
67352;SDS011;54238;52.278;21.056;2022-09-09T03:03:39;17.50;;;8.60;;
67352;SDS011;54238;52.278;21.056;2022-09-09T03:06:08;13.80;;;8.50;;
67352;SDS011;54238;52.278;21.056;2022-09-09T03:08:37;17.80;;;10.10;;
67352;SDS011;54238;52.278;21.056;2022-09-09T03:11:07;17.00;;;8.10;;
67352;SDS011;54238;52.278;21.056;2022-09-09T03:13:40;14.20;;;8.00;;
67352;SDS011;54238;52.278;21.056;2022-09-09T03:16:12;12.20;;;8.00;;
67352;SDS011;54238;52.278;21.056;2022-09-09T03:18:41;11.20;;;7.40;;
67352;SDS011;54238;52.278;21.056;2022-09-09T03:21:14;16.90;;;8.90;;
67352;SDS011;54238;52.278;21.056;2022-09-09T03:23:41;14.70;;;8.20;;
67352;SDS011;54238;52.278;21.056;2022-09-09T03:26:08;18.00;;;8.30;;
67352;SDS011;54238;52.278;21.056;2022-09-09T03:28:37;12.60;;;7.60;;
67352;SDS011;54238;52.278;21.056;2022-09-09T03:31:05;13.60;;;7.00;;
67352;SDS011;54238;52.278;21.056;2022-09-09T03:33:39;12.70;;;7.90;;
67352;SDS011;54238;52.278;21.056;2022-09-09T03:36:10;10.70;;;6.80;;
67352;SDS011;54238;52.278;21.056;2022-09-09T03:38:41;16.90;;;8.40;;
67352;SDS011;54238;52.278;21.056;2022-09-09T03:41:09;12.10;;;7.60;;
67352;SDS011;54238;52.278;21.056;2022-09-09T03:43:36;13.20;;;6.70;;
67352;SDS011;54238;52.278;21.056;2022-09-09T03:46:09;12.40;;;7.40;;
67352;SDS011;54238;52.278;21.056;2022-09-09T03:48:39;15.40;;;7.80;;
67352;SDS011;54238;52.278;21.056;2022-09-09T03:51:06;11.30;;;6.90;;
67352;SDS011;54238;52.278;21.056;2022-09-09T03:53:34;12.10;;;7.50;;
67352;SDS011;54238;52.278;21.056;2022-09-09T03:56:05;11.40;;;7.30;;
67352;SDS011;54238;52.278;21.056;2022-09-09T03:58:37;10.90;;;7.00;;
67352;SDS011;54238;52.278;21.056;2022-09-09T04:01:12;14.40;;;6.90;;
67352;SDS011;54238;52.278;21.056;2022-09-09T04:03:44;12.30;;;7.60;;
67352;SDS011;54238;52.278;21.056;2022-09-09T04:06:14;11.90;;;6.90;;
67352;SDS011;54238;52.278;21.056;2022-09-09T04:08:47;11.70;;;6.90;;
67352;SDS011;54238;52.278;21.056;2022-09-09T04:11:21;11.70;;;6.60;;
67352;SDS011;54238;52.278;21.056;2022-09-09T04:13:58;13.60;;;7.20;;
67352;SDS011;54238;52.278;21.056;2022-09-09T04:16:27;10.00;;;6.50;;
67352;SDS011;54238;52.278;21.056;2022-09-09T04:18:57;11.20;;;6.50;;
67352;SDS011;54238;52.278;21.056;2022-09-09T04:21:29;10.10;;;6.10;;
67352;SDS011;54238;52.278;21.056;2022-09-09T04:24:02;10.70;;;6.80;;
67352;SDS011;54238;52.278;21.056;2022-09-09T04:26:29;11.20;;;6.60;;
67352;SDS011;54238;52.278;21.056;2022-09-09T04:28:59;12.50;;;6.50;;
67352;SDS011;54238;52.278;21.056;2022-09-09T04:31:26;10.10;;;5.60;;
67352;SDS011;54238;52.278;21.056;2022-09-09T04:33:55;9.10;;;5.20;;
67352;SDS011;54238;52.278;21.056;2022-09-09T04:36:25;10.30;;;5.80;;
67352;SDS011;54238;52.278;21.056;2022-09-09T04:38:54;7.60;;;5.20;;
67352;SDS011;54238;52.278;21.056;2022-09-09T04:41:24;8.30;;;5.10;;
67352;SDS011;54238;52.278;21.056;2022-09-09T04:43:54;9.20;;;6.10;;
67352;SDS011;54238;52.278;21.056;2022-09-09T04:46:23;8.00;;;5.20;;
67352;SDS011;54238;52.278;21.056;2022-09-09T04:48:51;8.40;;;5.30;;
67352;SDS011;54238;52.278;21.056;2022-09-09T04:51:19;9.70;;;6.10;;
67352;SDS011;54238;52.278;21.056;2022-09-09T04:53:49;12.80;;;6.10;;
67352;SDS011;54238;52.278;21.056;2022-09-09T04:56:19;14.50;;;5.70;;
67352;SDS011;54238;52.278;21.056;2022-09-09T04:58:53;9.50;;;5.60;;
67352;SDS011;54238;52.278;21.056;2022-09-09T05:01:25;10.00;;;5.80;;
67352;SDS011;54238;52.278;21.056;2022-09-09T05:03:55;9.30;;;5.80;;
67352;SDS011;54238;52.278;21.056;2022-09-09T05:06:26;6.70;;;4.70;;
67352;SDS011;54238;52.278;21.056;2022-09-09T05:09:02;9.80;;;4.90;;
67352;SDS011;54238;52.278;21.056;2022-09-09T05:11:32;7.00;;;5.10;;
67352;SDS011;54238;52.278;21.056;2022-09-09T05:14:06;6.60;;;5.10;;
67352;SDS011;54238;52.278;21.056;2022-09-09T05:16:41;8.30;;;5.20;;
67352;SDS011;54238;52.278;21.056;2022-09-09T05:19:11;8.80;;;5.20;;
67352;SDS011;54238;52.278;21.056;2022-09-09T05:21:38;6.70;;;4.50;;
67352;SDS011;54238;52.278;21.056;2022-09-09T05:24:08;6.50;;;4.20;;
67352;SDS011;54238;52.278;21.056;2022-09-09T05:26:37;12.20;;;4.70;;
67352;SDS011;54238;52.278;21.056;2022-09-09T05:29:09;8.10;;;5.00;;
67352;SDS011;54238;52.278;21.056;2022-09-09T05:31:43;5.60;;;3.90;;
67352;SDS011;54238;52.278;21.056;2022-09-09T05:34:10;8.00;;;4.20;;
67352;SDS011;54238;52.278;21.056;2022-09-09T05:36:40;8.80;;;4.60;;
67352;SDS011;54238;52.278;21.056;2022-09-09T05:39:07;7.50;;;4.70;;
67352;SDS011;54238;52.278;21.056;2022-09-09T05:41:34;6.40;;;4.80;;
67352;SDS011;54238;52.278;21.056;2022-09-09T05:44:04;6.30;;;4.00;;
67352;SDS011;54238;52.278;21.056;2022-09-09T05:46:35;9.50;;;4.50;;
67352;SDS011;54238;52.278;21.056;2022-09-09T05:49:02;6.10;;;4.40;;
67352;SDS011;54238;52.278;21.056;2022-09-09T05:51:33;5.90;;;3.60;;
67352;SDS011;54238;52.278;21.056;2022-09-09T05:54:00;6.50;;;4.30;;
67352;SDS011;54238;52.278;21.056;2022-09-09T05:56:30;9.50;;;4.20;;
67352;SDS011;54238;52.278;21.056;2022-09-09T05:58:57;7.50;;;4.00;;
67352;SDS011;54238;52.278;21.056;2022-09-09T06:01:27;5.80;;;4.20;;
67352;SDS011;54238;52.278;21.056;2022-09-09T06:04:03;5.30;;;3.70;;
67352;SDS011;54238;52.278;21.056;2022-09-09T06:06:34;5.60;;;4.20;;
67352;SDS011;54238;52.278;21.056;2022-09-09T06:09:11;5.10;;;4.20;;
67352;SDS011;54238;52.278;21.056;2022-09-09T06:11:39;6.90;;;4.70;;
67352;SDS011;54238;52.278;21.056;2022-09-09T06:14:10;6.30;;;3.70;;
67352;SDS011;54238;52.278;21.056;2022-09-09T06:16:42;7.40;;;4.40;;
67352;SDS011;54238;52.278;21.056;2022-09-09T06:19:10;4.90;;;3.60;;
67352;SDS011;54238;52.278;21.056;2022-09-09T06:21:41;4.90;;;4.40;;
67352;SDS011;54238;52.278;21.056;2022-09-09T06:24:11;7.60;;;4.10;;
67352;SDS011;54238;52.278;21.056;2022-09-09T06:26:46;6.20;;;4.80;;
67352;SDS011;54238;52.278;21.056;2022-09-09T06:29:15;5.60;;;4.00;;
67352;SDS011;54238;52.278;21.056;2022-09-09T06:31:47;7.40;;;3.60;;
67352;SDS011;54238;52.278;21.056;2022-09-09T06:34:21;6.40;;;4.10;;
67352;SDS011;54238;52.278;21.056;2022-09-09T06:36:48;5.30;;;4.10;;
67352;SDS011;54238;52.278;21.056;2022-09-09T06:39:18;8.30;;;5.50;;
67352;SDS011;54238;52.278;21.056;2022-09-09T06:41:52;5.60;;;4.80;;
67352;SDS011;54238;52.278;21.056;2022-09-09T06:44:22;6.70;;;4.10;;
67352;SDS011;54238;52.278;21.056;2022-09-09T06:46:56;7.70;;;4.70;;
67352;SDS011;54238;52.278;21.056;2022-09-09T06:49:25;7.10;;;4.70;;
67352;SDS011;54238;52.278;21.056;2022-09-09T06:51:52;8.30;;;5.20;;
67352;SDS011;54238;52.278;21.056;2022-09-09T06:54:24;7.90;;;4.90;;
67352;SDS011;54238;52.278;21.056;2022-09-09T06:56:53;7.40;;;4.80;;
67352;SDS011;54238;52.278;21.056;2022-09-09T06:59:20;6.90;;;4.90;;
67352;SDS011;54238;52.278;21.056;2022-09-09T07:01:50;7.70;;;5.20;;
67352;SDS011;54238;52.278;21.056;2022-09-09T07:04:23;9.10;;;5.10;;
67352;SDS011;54238;52.278;21.056;2022-09-09T07:06:50;8.80;;;6.00;;
67352;SDS011;54238;52.278;21.056;2022-09-09T07:09:22;9.40;;;5.70;;
67352;SDS011;54238;52.278;21.056;2022-09-09T07:11:52;8.90;;;5.40;;
67352;SDS011;54238;52.278;21.056;2022-09-09T07:14:24;9.00;;;5.50;;
67352;SDS011;54238;52.278;21.056;2022-09-09T07:16:51;9.00;;;5.60;;
67352;SDS011;54238;52.278;21.056;2022-09-09T07:19:20;9.60;;;5.80;;
67352;SDS011;54238;52.278;21.056;2022-09-09T07:21:49;13.70;;;6.20;;
67352;SDS011;54238;52.278;21.056;2022-09-09T07:24:17;6.80;;;5.70;;
67352;SDS011;54238;52.278;21.056;2022-09-09T07:26:48;7.20;;;5.50;;
67352;SDS011;54238;52.278;21.056;2022-09-09T07:29:15;9.80;;;6.20;;
67352;SDS011;54238;52.278;21.056;2022-09-09T07:31:44;8.60;;;6.10;;
67352;SDS011;54238;52.278;21.056;2022-09-09T07:34:11;12.00;;;5.60;;
67352;SDS011;54238;52.278;21.056;2022-09-09T07:36:42;7.80;;;5.90;;
67352;SDS011;54238;52.278;21.056;2022-09-09T07:39:11;9.40;;;5.80;;
67352;SDS011;54238;52.278;21.056;2022-09-09T07:41:46;8.40;;;5.70;;
67352;SDS011;54238;52.278;21.056;2022-09-09T07:44:19;8.40;;;6.80;;
67352;SDS011;54238;52.278;21.056;2022-09-09T07:46:48;9.60;;;6.40;;
67352;SDS011;54238;52.278;21.056;2022-09-09T07:49:20;11.60;;;6.80;;
67352;SDS011;54238;52.278;21.056;2022-09-09T07:51:50;10.30;;;6.60;;
67352;SDS011;54238;52.278;21.056;2022-09-09T07:54:18;9.20;;;6.50;;
67352;SDS011;54238;52.278;21.056;2022-09-09T07:56:52;9.40;;;6.70;;
67352;SDS011;54238;52.278;21.056;2022-09-09T07:59:22;10.90;;;6.60;;
67352;SDS011;54238;52.278;21.056;2022-09-09T08:01:52;9.90;;;6.60;;
67352;SDS011;54238;52.278;21.056;2022-09-09T08:04:25;9.70;;;6.80;;
67352;SDS011;54238;52.278;21.056;2022-09-09T08:07:00;15.80;;;7.00;;
67352;SDS011;54238;52.278;21.056;2022-09-09T08:09:30;12.80;;;8.10;;
67352;SDS011;54238;52.278;21.056;2022-09-09T08:12:03;9.90;;;6.70;;
67352;SDS011;54238;52.278;21.056;2022-09-09T08:14:33;11.60;;;7.10;;
67352;SDS011;54238;52.278;21.056;2022-09-09T08:17:06;13.70;;;7.50;;
67352;SDS011;54238;52.278;21.056;2022-09-09T08:19:36;12.70;;;7.30;;
67352;SDS011;54238;52.278;21.056;2022-09-09T08:22:08;12.20;;;7.40;;
67352;SDS011;54238;52.278;21.056;2022-09-09T08:24:42;11.20;;;7.40;;
67352;SDS011;54238;52.278;21.056;2022-09-09T08:27:14;9.30;;;6.70;;
67352;SDS011;54238;52.278;21.056;2022-09-09T08:29:46;16.30;;;8.90;;
67352;SDS011;54238;52.278;21.056;2022-09-09T08:32:13;12.60;;;7.70;;
67352;SDS011;54238;52.278;21.056;2022-09-09T08:34:45;12.80;;;7.20;;
67352;SDS011;54238;52.278;21.056;2022-09-09T08:37:16;12.30;;;7.90;;
67352;SDS011;54238;52.278;21.056;2022-09-09T08:39:46;13.40;;;8.60;;
67352;SDS011;54238;52.278;21.056;2022-09-09T08:42:47;13.10;;;8.70;;
67352;SDS011;54238;52.278;21.056;2022-09-09T08:48:09;11.40;;;7.80;;
67352;SDS011;54238;52.278;21.056;2022-09-09T08:50:51;13.20;;;8.60;;
67352;SDS011;54238;52.278;21.056;2022-09-09T08:53:22;14.00;;;9.30;;
67352;SDS011;54238;52.278;21.056;2022-09-09T08:56:14;12.70;;;8.70;;
67352;SDS011;54238;52.278;21.056;2022-09-09T08:58:53;15.10;;;9.90;;
67352;SDS011;54238;52.278;21.056;2022-09-09T09:10:42;15.90;;;9.30;;
67352;SDS011;54238;52.278;21.056;2022-09-09T09:13:24;13.80;;;9.50;;
67352;SDS011;54238;52.278;21.056;2022-09-09T09:19:02;14.00;;;9.30;;
67352;SDS011;54238;52.278;21.056;2022-09-09T09:21:41;14.60;;;9.50;;
67352;SDS011;54238;52.278;21.056;2022-09-09T09:24:24;18.80;;;10.70;;
67352;SDS011;54238;52.278;21.056;2022-09-09T09:27:21;18.10;;;11.20;;
67352;SDS011;54238;52.278;21.056;2022-09-09T09:30:16;16.90;;;10.00;;
67352;SDS011;54238;52.278;21.056;2022-09-09T09:35:27;14.70;;;10.00;;
67352;SDS011;54238;52.278;21.056;2022-09-09T09:37:55;18.30;;;11.20;;
67352;SDS011;54238;52.278;21.056;2022-09-09T09:40:25;18.80;;;10.30;;
67352;SDS011;54238;52.278;21.056;2022-09-09T09:43:00;21.30;;;11.50;;
67352;SDS011;54238;52.278;21.056;2022-09-09T09:45:42;19.40;;;11.30;;
67352;SDS011;54238;52.278;21.056;2022-09-09T09:48:16;18.60;;;12.00;;
67352;SDS011;54238;52.278;21.056;2022-09-09T09:51:10;17.40;;;10.40;;
67352;SDS011;54238;52.278;21.056;2022-09-09T09:53:42;26.00;;;11.90;;
67352;SDS011;54238;52.278;21.056;2022-09-09T09:56:14;18.80;;;10.90;;
67352;SDS011;54238;52.278;21.056;2022-09-09T09:58:51;16.70;;;10.60;;
67352;SDS011;54238;52.278;21.056;2022-09-09T10:01:29;20.70;;;12.50;;
67352;SDS011;54238;52.278;21.056;2022-09-09T10:06:49;19.30;;;12.10;;
67352;SDS011;54238;52.278;21.056;2022-09-09T10:09:29;17.90;;;11.20;;
67352;SDS011;54238;52.278;21.056;2022-09-09T10:27:18;19.20;;;11.40;;
67352;SDS011;54238;52.278;21.056;2022-09-09T10:32:53;20.10;;;11.90;;
67352;SDS011;54238;52.278;21.056;2022-09-09T10:39:15;21.50;;;12.10;;
67352;SDS011;54238;52.278;21.056;2022-09-09T10:42:12;23.00;;;12.40;;
67352;SDS011;54238;52.278;21.056;2022-09-09T10:45:17;19.60;;;11.60;;
67352;SDS011;54238;52.278;21.056;2022-09-09T10:51:01;20.70;;;12.90;;
67352;SDS011;54238;52.278;21.056;2022-09-09T10:56:24;19.50;;;13.50;;
67352;SDS011;54238;52.278;21.056;2022-09-09T11:01:28;20.90;;;14.20;;
67352;SDS011;54238;52.278;21.056;2022-09-09T11:04:04;23.60;;;14.50;;
67352;SDS011;54238;52.278;21.056;2022-09-09T11:06:51;23.00;;;14.90;;
67352;SDS011;54238;52.278;21.056;2022-09-09T11:09:28;23.60;;;14.00;;
67352;SDS011;54238;52.278;21.056;2022-09-09T11:12:00;27.70;;;14.20;;
67352;SDS011;54238;52.278;21.056;2022-09-09T11:14:42;23.70;;;14.80;;
67352;SDS011;54238;52.278;21.056;2022-09-09T11:20:16;26.20;;;15.20;;
67352;SDS011;54238;52.278;21.056;2022-09-09T11:25:46;25.00;;;15.60;;
67352;SDS011;54238;52.278;21.056;2022-09-09T11:31:46;28.50;;;16.20;;
67352;SDS011;54238;52.278;21.056;2022-09-09T11:37:50;31.20;;;18.00;;
67352;SDS011;54238;52.278;21.056;2022-09-09T11:40:45;30.20;;;17.80;;
67352;SDS011;54238;52.278;21.056;2022-09-09T11:43:24;30.00;;;16.00;;
67352;SDS011;54238;52.278;21.056;2022-09-09T11:45:58;25.70;;;16.50;;
67352;SDS011;54238;52.278;21.056;2022-09-09T11:48:39;29.10;;;17.90;;
67352;SDS011;54238;52.278;21.056;2022-09-09T11:56:33;31.70;;;17.20;;
67352;SDS011;54238;52.278;21.056;2022-09-09T11:59:50;30.40;;;18.00;;
67352;SDS011;54238;52.278;21.056;2022-09-09T12:02:24;32.10;;;19.20;;
67352;SDS011;54238;52.278;21.056;2022-09-09T12:05:07;30.50;;;19.00;;
67352;SDS011;54238;52.278;21.056;2022-09-09T12:07:39;33.10;;;19.20;;
67352;SDS011;54238;52.278;21.056;2022-09-09T12:10:31;32.40;;;20.00;;
67352;SDS011;54238;52.278;21.056;2022-09-09T12:13:16;33.40;;;20.70;;
67352;SDS011;54238;52.278;21.056;2022-09-09T12:15:55;29.80;;;19.00;;
67352;SDS011;54238;52.278;21.056;2022-09-09T12:24:13;38.50;;;20.10;;
67352;SDS011;54238;52.278;21.056;2022-09-09T12:30:04;34.30;;;19.70;;
67352;SDS011;54238;52.278;21.056;2022-09-09T12:32:36;34.30;;;20.70;;
67352;SDS011;54238;52.278;21.056;2022-09-09T12:37:56;32.40;;;21.40;;
67352;SDS011;54238;52.278;21.056;2022-09-09T12:40:33;35.20;;;19.70;;
67352;SDS011;54238;52.278;21.056;2022-09-09T12:43:20;33.20;;;21.10;;
67352;SDS011;54238;52.278;21.056;2022-09-09T12:45:52;34.90;;;19.20;;
67352;SDS011;54238;52.278;21.056;2022-09-09T12:48:40;37.30;;;20.60;;
67352;SDS011;54238;52.278;21.056;2022-09-09T12:51:25;33.20;;;19.10;;
67352;SDS011;54238;52.278;21.056;2022-09-09T12:53:55;38.30;;;20.80;;
67352;SDS011;54238;52.278;21.056;2022-09-09T12:56:27;31.70;;;18.60;;
67352;SDS011;54238;52.278;21.056;2022-09-09T12:59:01;31.50;;;16.80;;
67352;SDS011;54238;52.278;21.056;2022-09-09T13:01:32;33.10;;;18.50;;
67352;SDS011;54238;52.278;21.056;2022-09-09T13:04:02;33.70;;;20.10;;
67352;SDS011;54238;52.278;21.056;2022-09-09T13:06:52;36.00;;;19.00;;
67352;SDS011;54238;52.278;21.056;2022-09-09T13:09:22;35.00;;;19.80;;
67352;SDS011;54238;52.278;21.056;2022-09-09T13:11:58;38.50;;;20.50;;
67352;SDS011;54238;52.278;21.056;2022-09-09T13:14:30;38.20;;;20.90;;
67352;SDS011;54238;52.278;21.056;2022-09-09T13:17:06;33.90;;;19.80;;
67352;SDS011;54238;52.278;21.056;2022-09-09T13:19:47;33.70;;;18.10;;
67352;SDS011;54238;52.278;21.056;2022-09-09T13:22:35;37.10;;;18.70;;
67352;SDS011;54238;52.278;21.056;2022-09-09T13:35:56;35.40;;;18.80;;
67352;SDS011;54238;52.278;21.056;2022-09-09T13:38:28;39.20;;;20.60;;
67352;SDS011;54238;52.278;21.056;2022-09-09T13:41:02;34.20;;;17.70;;
67352;SDS011;54238;52.278;21.056;2022-09-09T13:43:38;37.10;;;17.00;;
67352;SDS011;54238;52.278;21.056;2022-09-09T13:46:36;32.70;;;16.80;;
67352;SDS011;54238;52.278;21.056;2022-09-09T13:51:48;36.20;;;19.70;;
67352;SDS011;54238;52.278;21.056;2022-09-09T13:54:21;33.10;;;19.40;;
67352;SDS011;54238;52.278;21.056;2022-09-09T13:56:52;44.30;;;22.80;;
67352;SDS011;54238;52.278;21.056;2022-09-09T13:59:23;33.00;;;18.60;;
67352;SDS011;54238;52.278;21.056;2022-09-09T14:01:56;31.20;;;18.60;;
67352;SDS011;54238;52.278;21.056;2022-09-09T14:04:26;39.00;;;21.10;;
67352;SDS011;54238;52.278;21.056;2022-09-09T14:06:57;35.50;;;21.00;;
67352;SDS011;54238;52.278;21.056;2022-09-09T14:09:28;35.10;;;19.90;;
67352;SDS011;54238;52.278;21.056;2022-09-09T14:11:57;36.40;;;19.60;;
67352;SDS011;54238;52.278;21.056;2022-09-09T14:14:26;37.80;;;20.60;;
67352;SDS011;54238;52.278;21.056;2022-09-09T14:16:54;41.20;;;21.60;;
67352;SDS011;54238;52.278;21.056;2022-09-09T14:19:21;40.60;;;20.00;;
67352;SDS011;54238;52.278;21.056;2022-09-09T14:21:52;34.10;;;19.70;;
67352;SDS011;54238;52.278;21.056;2022-09-09T14:24:19;32.60;;;20.40;;
67352;SDS011;54238;52.278;21.056;2022-09-09T14:26:47;37.10;;;20.90;;
67352;SDS011;54238;52.278;21.056;2022-09-09T14:29:14;32.50;;;19.10;;
67352;SDS011;54238;52.278;21.056;2022-09-09T14:31:41;39.10;;;20.60;;
67352;SDS011;54238;52.278;21.056;2022-09-09T14:34:08;32.90;;;19.10;;
67352;SDS011;54238;52.278;21.056;2022-09-09T14:36:40;38.00;;;19.60;;
67352;SDS011;54238;52.278;21.056;2022-09-09T14:39:11;30.30;;;17.70;;
67352;SDS011;54238;52.278;21.056;2022-09-09T14:41:40;33.30;;;18.20;;
67352;SDS011;54238;52.278;21.056;2022-09-09T14:44:09;37.60;;;19.70;;
67352;SDS011;54238;52.278;21.056;2022-09-09T14:46:39;33.40;;;19.10;;
67352;SDS011;54238;52.278;21.056;2022-09-09T14:49:08;31.90;;;18.90;;
67352;SDS011;54238;52.278;21.056;2022-09-09T14:51:39;33.40;;;19.00;;
67352;SDS011;54238;52.278;21.056;2022-09-09T14:54:07;31.00;;;19.50;;
67352;SDS011;54238;52.278;21.056;2022-09-09T14:56:40;33.30;;;19.70;;
67352;SDS011;54238;52.278;21.056;2022-09-09T14:59:09;31.90;;;19.30;;
67352;SDS011;54238;52.278;21.056;2022-09-09T15:01:39;38.20;;;21.40;;
67352;SDS011;54238;52.278;21.056;2022-09-09T15:04:06;34.60;;;19.40;;
67352;SDS011;54238;52.278;21.056;2022-09-09T15:06:40;32.20;;;18.30;;
67352;SDS011;54238;52.278;21.056;2022-09-09T15:09:11;33.40;;;19.70;;
67352;SDS011;54238;52.278;21.056;2022-09-09T15:11:44;35.70;;;20.30;;
67352;SDS011;54238;52.278;21.056;2022-09-09T15:14:16;37.40;;;19.00;;
67352;SDS011;54238;52.278;21.056;2022-09-09T15:16:44;37.60;;;20.50;;
67352;SDS011;54238;52.278;21.056;2022-09-09T15:19:18;38.20;;;19.40;;
67352;SDS011;54238;52.278;21.056;2022-09-09T15:21:48;35.70;;;19.80;;
67352;SDS011;54238;52.278;21.056;2022-09-09T15:24:19;35.60;;;20.60;;
67352;SDS011;54238;52.278;21.056;2022-09-09T15:26:50;37.30;;;19.00;;
67352;SDS011;54238;52.278;21.056;2022-09-09T15:29:21;31.90;;;18.60;;
67352;SDS011;54238;52.278;21.056;2022-09-09T15:31:48;37.70;;;20.80;;
67352;SDS011;54238;52.278;21.056;2022-09-09T15:34:17;31.70;;;19.50;;
67352;SDS011;54238;52.278;21.056;2022-09-09T15:36:50;35.60;;;20.10;;
67352;SDS011;54238;52.278;21.056;2022-09-09T15:39:24;40.10;;;21.40;;
67352;SDS011;54238;52.278;21.056;2022-09-09T15:41:50;37.50;;;19.80;;
67352;SDS011;54238;52.278;21.056;2022-09-09T15:44:20;42.20;;;20.80;;
67352;SDS011;54238;52.278;21.056;2022-09-09T15:46:52;38.00;;;21.10;;
67352;SDS011;54238;52.278;21.056;2022-09-09T15:49:25;37.90;;;19.70;;
67352;SDS011;54238;52.278;21.056;2022-09-09T15:52:02;34.90;;;19.70;;
67352;SDS011;54238;52.278;21.056;2022-09-09T15:54:34;34.20;;;19.20;;
67352;SDS011;54238;52.278;21.056;2022-09-09T15:57:07;33.80;;;19.10;;
67352;SDS011;54238;52.278;21.056;2022-09-09T15:59:41;36.30;;;19.60;;
67352;SDS011;54238;52.278;21.056;2022-09-09T16:02:16;30.90;;;16.90;;
67352;SDS011;54238;52.278;21.056;2022-09-09T16:04:45;34.80;;;18.70;;
67352;SDS011;54238;52.278;21.056;2022-09-09T16:07:16;37.00;;;21.00;;
67352;SDS011;54238;52.278;21.056;2022-09-09T16:09:49;34.20;;;19.80;;
67352;SDS011;54238;52.278;21.056;2022-09-09T16:12:22;27.50;;;17.50;;
67352;SDS011;54238;52.278;21.056;2022-09-09T16:14:52;31.50;;;18.50;;
67352;SDS011;54238;52.278;21.056;2022-09-09T16:17:19;33.70;;;18.50;;
67352;SDS011;54238;52.278;21.056;2022-09-09T16:19:48;35.90;;;18.30;;
67352;SDS011;54238;52.278;21.056;2022-09-09T16:22:15;36.10;;;18.30;;
67352;SDS011;54238;52.278;21.056;2022-09-09T16:24:47;33.30;;;17.60;;
67352;SDS011;54238;52.278;21.056;2022-09-09T16:27:14;32.10;;;16.60;;
67352;SDS011;54238;52.278;21.056;2022-09-09T16:29:49;31.80;;;17.10;;
67352;SDS011;54238;52.278;21.056;2022-09-09T16:32:16;28.50;;;18.10;;
67352;SDS011;54238;52.278;21.056;2022-09-09T16:34:44;31.30;;;18.50;;
67352;SDS011;54238;52.278;21.056;2022-09-09T16:37:13;37.10;;;20.10;;
67352;SDS011;54238;52.278;21.056;2022-09-09T16:39:46;30.50;;;17.00;;
67352;SDS011;54238;52.278;21.056;2022-09-09T16:42:13;30.60;;;17.60;;
67352;SDS011;54238;52.278;21.056;2022-09-09T16:44:40;31.60;;;17.30;;
67352;SDS011;54238;52.278;21.056;2022-09-09T16:47:10;26.60;;;16.50;;
67352;SDS011;54238;52.278;21.056;2022-09-09T16:49:37;30.60;;;17.60;;
67352;SDS011;54238;52.278;21.056;2022-09-09T16:52:07;30.50;;;19.30;;
67352;SDS011;54238;52.278;21.056;2022-09-09T16:54:36;31.80;;;17.20;;
67352;SDS011;54238;52.278;21.056;2022-09-09T16:57:05;35.50;;;18.30;;
67352;SDS011;54238;52.278;21.056;2022-09-09T16:59:37;28.90;;;17.80;;
67352;SDS011;54238;52.278;21.056;2022-09-09T17:02:07;35.40;;;18.50;;
67352;SDS011;54238;52.278;21.056;2022-09-09T17:04:37;32.10;;;18.30;;
67352;SDS011;54238;52.278;21.056;2022-09-09T17:07:07;38.70;;;19.30;;
67352;SDS011;54238;52.278;21.056;2022-09-09T17:09:34;31.60;;;17.50;;
67352;SDS011;54238;52.278;21.056;2022-09-09T17:12:01;35.40;;;17.70;;